Oostkamp, Belgium
Current Conditions -  °F | °C
As of 5:50 PM on Wednesday 22 Oct 2014 (Local Time) from EBOS Reporting Station
Broken Clouds Broken Clouds  
Wind Chill: 54°   Ceiling: 4800
Heat Index: 54°   Visibility: 6mi
Dew Point: 41°   Wind: 16mph
Humidity: 62%   Direction: 290°WNW
Pressure: 30.21"   Gusts: NA
Location:  51.15°N, 3.23°E
Report Text: EBOS 221550Z 29014KT 9999 FEW030 BKN048 12/05 Q1023 NOSIG
Loading
Personal Weather Stations






























Interactive Weather Map
Tropical Storm Tracking
New forecast layout! Learn more

10-Day Weather Forecast

Advertisements
Track Severe Weather on mobile